PWSweather.com
Personal Weather Stations
Station Observations
DW1039
Liberty & Fairfield Townships, Hamilton, OH 45011

Liberty & Fairfield TownshipsHamilton, OH 45011

Lat: 39.3933, Lon: -84.477

Elevation: 780

Station Type: Davis Vantage Pro2 (Daytime Fan Aspirated)

http://www.lfweathercenter.com/

High Low Average
Temperature 85.9°F29.9°C 63.1°F17.3°C 73.9°F23.3°C
Dew Point 66.6°F19.2°C 61.9°F16.6°C 63.8°F17.7°C
Winds 8.0 mph 12.9 kmh Calm Calm 1.0 mph NE1.6 kmh NE
Wind Gusts 13.0 mph20.9 kmh -- 4.0 mph6.4 kmh
Humidity 96% 48% 73%
Pressure 30.03 in1016.9 mb 29.91 in1012.9 mb -
Precipitation 0.00 in0.0 mm - -
Hour Temp Dew Point Humidity Winds Wind Gusts Pressure Precip Precip Rate Daily Precip Total
12:00 AM 67.9°F19.9°C 63.2°F17.3°C 85% Calm Calm 1.0 mph1.6 kmh 29.98 in1015.2 mb 0.00 in0.0 mm 0.00 in/hr0.0 mm/hr 0.00 in0.0 mm
12:10 AM 67.7°F19.8°C 63.0°F17.2°C 85% Calm Calm -- 29.99 in1015.6 mb 0.00 in0.0 mm 0.00 in/hr0.0 mm/hr 0.00 in0.0 mm
12:20 AM 67.4°F19.7°C 63.4°F17.4°C 87% Calm Calm 1.0 mph1.6 kmh 29.99 in1015.6 mb 0.00 in0.0 mm 0.00 in/hr0.0 mm/hr 0.00 in0.0 mm
12:30 AM 67.6°F19.8°C 63.3°F17.4°C 86% Calm Calm 1.0 mph1.6 kmh 29.99 in1015.6 mb 0.00 in0.0 mm 0.00 in/hr0.0 mm/hr 0.00 in0.0 mm
12:40 AM 67.5°F19.7°C 63.2°F17.3°C 86% Calm Calm -- 29.99 in1015.6 mb 0.00 in0.0 mm 0.00 in/hr0.0 mm/hr 0.00 in0.0 mm
12:50 AM 66.9°F19.4°C 62.9°F17.2°C 87% Calm Calm -- 29.99 in1015.6 mb 0.00 in0.0 mm 0.00 in/hr0.0 mm/hr 0.00 in0.0 mm
01:01 AM 66.6°F19.2°C 62.9°F17.2°C 88% Calm Calm -- 29.99 in1015.6 mb 0.00 in0.0 mm 0.00 in/hr0.0 mm/hr 0.00 in0.0 mm
01:10 AM 66.9°F19.4°C 63.2°F17.3°C 88% Calm Calm -- 29.99 in1015.6 mb 0.00 in0.0 mm 0.00 in/hr0.0 mm/hr 0.00 in0.0 mm
01:20 AM 67.2°F19.6°C 62.9°F17.2°C 86% Calm Calm -- 30.00 in1015.9 mb 0.00 in0.0 mm 0.00 in/hr0.0 mm/hr 0.00 in0.0 mm
01:30 AM 67.6°F19.8°C 62.9°F17.2°C 85% Calm Calm -- 30.00 in1015.9 mb 0.00 in0.0 mm 0.00 in/hr0.0 mm/hr 0.00 in0.0 mm
01:40 AM 66.4°F19.1°C 62.7°F17.1°C 88% Calm Calm -- 29.99 in1015.6 mb 0.00 in0.0 mm 0.00 in/hr0.0 mm/hr 0.00 in0.0 mm
01:50 AM 66.0°F18.9°C 62.7°F17.1°C 89% Calm Calm -- 29.99 in1015.6 mb 0.00 in0.0 mm 0.00 in/hr0.0 mm/hr 0.00 in0.0 mm
02:00 AM 65.8°F18.8°C 62.8°F17.1°C 90% Calm Calm 1.0 mph1.6 kmh 29.99 in1015.6 mb 0.00 in0.0 mm 0.00 in/hr0.0 mm/hr 0.00 in0.0 mm
02:10 AM 66.7°F19.3°C 63.0°F17.2°C 88% Calm Calm 1.0 mph1.6 kmh 29.99 in1015.6 mb 0.00 in0.0 mm 0.00 in/hr0.0 mm/hr 0.00 in0.0 mm
02:20 AM 66.8°F19.3°C 63.5°F17.5°C 89% Calm Calm -- 29.99 in1015.6 mb 0.00 in0.0 mm 0.00 in/hr0.0 mm/hr 0.00 in0.0 mm
02:30 AM 66.6°F19.2°C 63.6°F17.6°C 90% Calm Calm -- 29.99 in1015.6 mb 0.00 in0.0 mm 0.00 in/hr0.0 mm/hr 0.00 in0.0 mm
02:40 AM 66.1°F18.9°C 63.7°F17.6°C 92% Calm Calm -- 29.99 in1015.6 mb 0.00 in0.0 mm 0.00 in/hr0.0 mm/hr 0.00 in0.0 mm
02:50 AM 65.3°F18.5°C 63.2°F17.3°C 93% Calm Calm -- 29.98 in1015.2 mb 0.00 in0.0 mm 0.00 in/hr0.0 mm/hr 0.00 in0.0 mm
03:00 AM 64.7°F18.2°C 62.9°F17.2°C 94% Calm Calm -- 29.98 in1015.2 mb 0.00 in0.0 mm 0.00 in/hr0.0 mm/hr 0.00 in0.0 mm
03:10 AM 64.5°F18.1°C 63.0°F17.2°C 95% Calm Calm -- 29.99 in1015.6 mb 0.00 in0.0 mm 0.00 in/hr0.0 mm/hr 0.00 in0.0 mm
03:20 AM 64.5°F18.1°C 63.0°F17.2°C 95% Calm Calm -- 29.98 in1015.2 mb 0.00 in0.0 mm 0.00 in/hr0.0 mm/hr 0.00 in0.0 mm
03:30 AM 64.2°F17.9°C 62.7°F17.1°C 95% Calm Calm -- 29.98 in1015.2 mb 0.00 in0.0 mm 0.00 in/hr0.0 mm/hr 0.00 in0.0 mm
03:40 AM 64.3°F17.9°C 63.1°F17.3°C 96% Calm Calm -- 29.98 in1015.2 mb 0.00 in0.0 mm 0.00 in/hr0.0 mm/hr 0.00 in0.0 mm
03:50 AM 64.4°F18.0°C 62.9°F17.2°C 95% Calm Calm -- 29.98 in1015.2 mb 0.00 in0.0 mm 0.00 in/hr0.0 mm/hr 0.00 in0.0 mm
04:00 AM 64.6°F18.1°C 62.8°F17.1°C 94% Calm Calm -- 29.99 in1015.6 mb 0.00 in0.0 mm 0.00 in/hr0.0 mm/hr 0.00 in0.0 mm
04:10 AM 64.3°F17.9°C 62.8°F17.1°C 95% Calm Calm -- 29.99 in1015.6 mb 0.00 in0.0 mm 0.00 in/hr0.0 mm/hr 0.00 in0.0 mm
04:20 AM 64.1°F17.8°C 62.6°F17.0°C 95% Calm Calm -- 29.98 in1015.2 mb 0.00 in0.0 mm 0.00 in/hr0.0 mm/hr 0.00 in0.0 mm
04:30 AM 63.8°F17.7°C 62.3°F16.8°C 95% Calm Calm 1.0 mph1.6 kmh 29.98 in1015.2 mb 0.00 in0.0 mm 0.00 in/hr0.0 mm/hr 0.00 in0.0 mm
04:40 AM 64.1°F17.8°C 62.6°F17.0°C 95% Calm Calm 1.0 mph1.6 kmh 29.98 in1015.2 mb 0.00 in0.0 mm 0.00 in/hr0.0 mm/hr 0.00 in0.0 mm
04:50 AM 64.3°F17.9°C 62.5°F16.9°C 94% Calm Calm 1.0 mph1.6 kmh 29.98 in1015.2 mb 0.00 in0.0 mm 0.00 in/hr0.0 mm/hr 0.00 in0.0 mm
05:01 AM 64.1°F17.8°C 62.6°F17.0°C 95% Calm Calm 1.0 mph1.6 kmh 29.99 in1015.6 mb 0.00 in0.0 mm 0.00 in/hr0.0 mm/hr 0.00 in0.0 mm
05:10 AM 63.7°F17.6°C 62.2°F16.8°C 95% Calm Calm 1.0 mph1.6 kmh 29.99 in1015.6 mb 0.00 in0.0 mm 0.00 in/hr0.0 mm/hr 0.00 in0.0 mm
05:20 AM 63.1°F17.3°C 61.9°F16.6°C 96% Calm Calm 1.0 mph1.6 kmh 29.98 in1015.2 mb 0.00 in0.0 mm 0.00 in/hr0.0 mm/hr 0.00 in0.0 mm
05:30 AM 63.1°F17.3°C 61.9°F16.6°C 96% Calm Calm 1.0 mph1.6 kmh 29.98 in1015.2 mb 0.00 in0.0 mm 0.00 in/hr0.0 mm/hr 0.00 in0.0 mm
05:40 AM 63.4°F17.4°C 62.2°F16.8°C 96% Calm Calm 1.0 mph1.6 kmh 29.98 in1015.2 mb 0.00 in0.0 mm 0.00 in/hr0.0 mm/hr 0.00 in0.0 mm
05:50 AM 63.5°F17.5°C 62.1°F16.7°C 95% Calm Calm 1.0 mph1.6 kmh 29.98 in1015.2 mb 0.00 in0.0 mm 0.00 in/hr0.0 mm/hr 0.00 in0.0 mm
06:00 AM 63.1°F17.3°C 61.9°F16.6°C 96% Calm Calm 1.0 mph1.6 kmh 29.98 in1015.2 mb 0.00 in0.0 mm 0.00 in/hr0.0 mm/hr 0.00 in0.0 mm
06:10 AM 63.6°F17.6°C 62.4°F16.9°C 96% 3.0 mph N4.8 kmh N 4.0 mph6.4 kmh 29.98 in1015.2 mb 0.00 in0.0 mm 0.00 in/hr0.0 mm/hr 0.00 in0.0 mm
06:20 AM 63.6°F17.6°C 62.2°F16.8°C 95% Calm Calm 2.0 mph3.2 kmh 29.99 in1015.6 mb 0.00 in0.0 mm 0.00 in/hr0.0 mm/hr 0.00 in0.0 mm
06:30 AM 63.8°F17.7°C 62.3°F16.8°C 95% Calm Calm 4.0 mph6.4 kmh 29.99 in1015.6 mb 0.00 in0.0 mm 0.00 in/hr0.0 mm/hr 0.00 in0.0 mm
06:40 AM 64.0°F17.8°C 62.2°F16.8°C 94% Calm Calm 3.0 mph4.8 kmh 29.99 in1015.6 mb 0.00 in0.0 mm 0.00 in/hr0.0 mm/hr 0.00 in0.0 mm
06:50 AM 63.9°F17.7°C 62.4°F16.9°C 95% Calm Calm 3.0 mph4.8 kmh 29.99 in1015.6 mb 0.00 in0.0 mm 0.00 in/hr0.0 mm/hr 0.00 in0.0 mm
07:00 AM 64.0°F17.8°C 62.2°F16.8°C 94% 2.0 mph N3.2 kmh N 4.0 mph6.4 kmh 29.99 in1015.6 mb 0.00 in0.0 mm 0.00 in/hr0.0 mm/hr 0.00 in0.0 mm
07:10 AM 63.7°F17.6°C 62.0°F16.7°C 94% 1.0 mph N1.6 kmh N 6.0 mph9.7 kmh 30.00 in1015.9 mb 0.00 in0.0 mm 0.00 in/hr0.0 mm/hr 0.00 in0.0 mm
07:20 AM 63.4°F17.4°C 62.0°F16.7°C 95% Calm Calm 3.0 mph4.8 kmh 30.00 in1015.9 mb 0.00 in0.0 mm 0.00 in/hr0.0 mm/hr 0.00 in0.0 mm
07:30 AM 63.8°F17.7°C 62.3°F16.8°C 95% Calm Calm 4.0 mph6.4 kmh 30.00 in1015.9 mb 0.00 in0.0 mm 0.00 in/hr0.0 mm/hr 0.00 in0.0 mm
07:40 AM 64.1°F17.8°C 62.6°F17.0°C 95% Calm Calm 4.0 mph6.4 kmh 30.00 in1015.9 mb 0.00 in0.0 mm 0.00 in/hr0.0 mm/hr 0.00 in0.0 mm
07:50 AM 64.7°F18.2°C 62.9°F17.2°C 94% 2.0 mph NNE3.2 kmh NNE 6.0 mph9.7 kmh 30.00 in1015.9 mb 0.00 in0.0 mm 0.00 in/hr0.0 mm/hr 0.00 in0.0 mm
08:00 AM 65.3°F18.5°C 63.2°F17.3°C 93% 3.0 mph N4.8 kmh N 4.0 mph6.4 kmh 30.01 in1016.3 mb 0.00 in0.0 mm 0.00 in/hr0.0 mm/hr 0.00 in0.0 mm
08:10 AM 65.9°F18.8°C 63.8°F17.7°C 93% Calm Calm 5.0 mph8.0 kmh 30.01 in1016.3 mb 0.00 in0.0 mm 0.00 in/hr0.0 mm/hr 0.00 in0.0 mm
08:20 AM 66.6°F19.2°C 64.2°F17.9°C 92% 3.0 mph NNE4.8 kmh NNE 4.0 mph6.4 kmh 30.01 in1016.3 mb 0.00 in0.0 mm 0.00 in/hr0.0 mm/hr 0.00 in0.0 mm
08:30 AM 67.4°F19.7°C 64.1°F17.8°C 89% Calm Calm 3.0 mph4.8 kmh 30.01 in1016.3 mb 0.00 in0.0 mm 0.00 in/hr0.0 mm/hr 0.00 in0.0 mm
08:40 AM 68.3°F20.2°C 64.6°F18.1°C 88% Calm Calm 4.0 mph6.4 kmh 30.01 in1016.3 mb 0.00 in0.0 mm 0.00 in/hr0.0 mm/hr 0.00 in0.0 mm
08:50 AM 68.9°F20.5°C 64.9°F18.3°C 87% Calm Calm 5.0 mph8.0 kmh 30.01 in1016.3 mb 0.00 in0.0 mm 0.00 in/hr0.0 mm/hr 0.00 in0.0 mm
09:00 AM 69.4°F20.8°C 64.7°F18.2°C 85% Calm Calm 4.0 mph6.4 kmh 30.01 in1016.3 mb 0.00 in0.0 mm 0.00 in/hr0.0 mm/hr 0.00 in0.0 mm
09:10 AM 69.6°F20.9°C 64.9°F18.3°C 85% 3.0 mph NNE4.8 kmh NNE 5.0 mph8.0 kmh 30.01 in1016.3 mb 0.00 in0.0 mm 0.00 in/hr0.0 mm/hr 0.00 in0.0 mm
09:20 AM 70.3°F21.3°C 65.2°F18.4°C 84% Calm Calm 5.0 mph8.0 kmh 30.01 in1016.3 mb 0.00 in0.0 mm 0.00 in/hr0.0 mm/hr 0.00 in0.0 mm
09:30 AM 71.4°F21.9°C 66.0°F18.9°C 83% Calm Calm 2.0 mph3.2 kmh 30.01 in1016.3 mb 0.00 in0.0 mm 0.00 in/hr0.0 mm/hr 0.00 in0.0 mm
09:40 AM 71.9°F22.2°C 65.8°F18.8°C 81% Calm Calm 2.0 mph3.2 kmh 30.01 in1016.3 mb 0.00 in0.0 mm 0.00 in/hr0.0 mm/hr 0.00 in0.0 mm
09:50 AM 72.5°F22.5°C 66.0°F18.9°C 80% 2.0 mph NE3.2 kmh NE 2.0 mph3.2 kmh 30.01 in1016.3 mb 0.00 in0.0 mm 0.00 in/hr0.0 mm/hr 0.00 in0.0 mm
10:00 AM 73.3°F22.9°C 66.0°F18.9°C 78% 1.0 mph NE1.6 kmh NE 2.0 mph3.2 kmh 30.02 in1016.6 mb 0.00 in0.0 mm 0.00 in/hr0.0 mm/hr 0.00 in0.0 mm
10:10 AM 74.2°F23.4°C 66.2°F19.0°C 76% 1.0 mph NE1.6 kmh NE 3.0 mph4.8 kmh 30.02 in1016.6 mb 0.00 in0.0 mm 0.00 in/hr0.0 mm/hr 0.00 in0.0 mm
10:20 AM 74.6°F23.7°C 66.2°F19.0°C 75% 5.0 mph NE8.0 kmh NE 5.0 mph8.0 kmh 30.02 in1016.6 mb 0.00 in0.0 mm 0.00 in/hr0.0 mm/hr 0.00 in0.0 mm
10:30 AM 76.3°F24.6°C 66.6°F19.2°C 72% 1.0 mph NE1.6 kmh NE 4.0 mph6.4 kmh 30.02 in1016.6 mb 0.00 in0.0 mm 0.00 in/hr0.0 mm/hr 0.00 in0.0 mm
10:40 AM 77.3°F25.2°C 66.4°F19.1°C 69% 1.0 mph E1.6 kmh E 6.0 mph9.7 kmh 30.02 in1016.6 mb 0.00 in0.0 mm 0.00 in/hr0.0 mm/hr 0.00 in0.0 mm
10:50 AM 78.2°F25.7°C 66.4°F19.1°C 67% 5.0 mph NE8.0 kmh NE 6.0 mph9.7 kmh 30.02 in1016.6 mb 0.00 in0.0 mm 0.00 in/hr0.0 mm/hr 0.00 in0.0 mm
11:00 AM 78.7°F25.9°C 65.5°F18.6°C 64% 1.0 mph NE1.6 kmh NE 3.0 mph4.8 kmh 30.02 in1016.6 mb 0.00 in0.0 mm 0.00 in/hr0.0 mm/hr 0.00 in0.0 mm
11:10 AM 79.8°F26.6°C 66.1°F18.9°C 63% Calm Calm 9.0 mph14.5 kmh 30.02 in1016.6 mb 0.00 in0.0 mm 0.00 in/hr0.0 mm/hr 0.00 in0.0 mm
11:20 AM 79.6°F26.4°C 65.5°F18.6°C 62% 8.0 mph NE12.9 kmh NE 9.0 mph14.5 kmh 30.03 in1016.9 mb 0.00 in0.0 mm 0.00 in/hr0.0 mm/hr 0.00 in0.0 mm
11:30 AM 80.5°F26.9°C 64.9°F18.3°C 59% Calm Calm 11.0 mph17.7 kmh 30.03 in1016.9 mb 0.00 in0.0 mm 0.00 in/hr0.0 mm/hr 0.00 in0.0 mm
11:40 AM 80.0°F26.7°C 64.9°F18.3°C 60% 2.0 mph ENE3.2 kmh ENE 9.0 mph14.5 kmh 30.02 in1016.6 mb 0.00 in0.0 mm 0.00 in/hr0.0 mm/hr 0.00 in0.0 mm
11:50 AM 79.1°F26.2°C 64.5°F18.1°C 61% 5.0 mph NE8.0 kmh NE 6.0 mph9.7 kmh 30.03 in1016.9 mb 0.00 in0.0 mm 0.00 in/hr0.0 mm/hr 0.00 in0.0 mm
12:00 PM 81.0°F27.2°C 65.8°F18.8°C 60% Calm Calm 4.0 mph6.4 kmh 30.02 in1016.6 mb 0.00 in0.0 mm 0.00 in/hr0.0 mm/hr 0.00 in0.0 mm
12:10 PM 78.6°F25.9°C 63.6°F17.6°C 60% 5.0 mph NE8.0 kmh NE 9.0 mph14.5 kmh 30.02 in1016.6 mb 0.00 in0.0 mm 0.00 in/hr0.0 mm/hr 0.00 in0.0 mm
12:20 PM 80.6°F27.0°C 64.0°F17.8°C 57% 3.0 mph NE4.8 kmh NE 7.0 mph11.3 kmh 30.01 in1016.3 mb 0.00 in0.0 mm 0.00 in/hr0.0 mm/hr 0.00 in0.0 mm
12:30 PM 78.9°F26.1°C 64.8°F18.2°C 62% Calm Calm 2.0 mph3.2 kmh 30.01 in1016.3 mb 0.00 in0.0 mm 0.00 in/hr0.0 mm/hr 0.00 in0.0 mm
12:40 PM 78.8°F26.0°C 63.8°F17.7°C 60% Calm Calm 6.0 mph9.7 kmh 30.01 in1016.3 mb 0.00 in0.0 mm 0.00 in/hr0.0 mm/hr 0.00 in0.0 mm
12:50 PM 78.8°F26.0°C 65.2°F18.4°C 63% Calm Calm 6.0 mph9.7 kmh 30.01 in1016.3 mb 0.00 in0.0 mm 0.00 in/hr0.0 mm/hr 0.00 in0.0 mm
01:01 PM 80.6°F27.0°C 64.5°F18.1°C 58% 2.0 mph NE3.2 kmh NE 8.0 mph12.9 kmh 30.01 in1016.3 mb 0.00 in0.0 mm 0.00 in/hr0.0 mm/hr 0.00 in0.0 mm
01:10 PM 81.9°F27.7°C 66.2°F19.0°C 59% 1.0 mph NE1.6 kmh NE 6.0 mph9.7 kmh 30.01 in1016.3 mb 0.00 in0.0 mm 0.00 in/hr0.0 mm/hr 0.00 in0.0 mm
01:20 PM 84.1°F28.9°C 66.2°F19.0°C 55% 1.0 mph N1.6 kmh N 11.0 mph17.7 kmh 30.00 in1015.9 mb 0.00 in0.0 mm 0.00 in/hr0.0 mm/hr 0.00 in0.0 mm
01:30 PM 83.2°F28.4°C 63.8°F17.7°C 52% Calm Calm 11.0 mph17.7 kmh 30.00 in1015.9 mb 0.00 in0.0 mm 0.00 in/hr0.0 mm/hr 0.00 in0.0 mm
01:40 PM 82.3°F27.9°C 66.6°F19.2°C 59% Calm Calm 5.0 mph8.0 kmh 29.99 in1015.6 mb 0.00 in0.0 mm 0.00 in/hr0.0 mm/hr 0.00 in0.0 mm
01:50 PM 84.1°F28.9°C 63.5°F17.5°C 50% 1.0 mph E1.6 kmh E 7.0 mph11.3 kmh 29.99 in1015.6 mb 0.00 in0.0 mm 0.00 in/hr0.0 mm/hr 0.00 in0.0 mm
02:00 PM 81.3°F27.4°C 64.1°F17.8°C 56% 7.0 mph NE11.3 kmh NE 8.0 mph12.9 kmh 29.99 in1015.6 mb 0.00 in0.0 mm 0.00 in/hr0.0 mm/hr 0.00 in0.0 mm
02:10 PM 81.1°F27.3°C 63.4°F17.4°C 55% 1.0 mph NNE1.6 kmh NNE 4.0 mph6.4 kmh 29.99 in1015.6 mb 0.00 in0.0 mm 0.00 in/hr0.0 mm/hr 0.00 in0.0 mm
02:20 PM 82.1°F27.8°C 63.3°F17.4°C 53% Calm Calm 2.0 mph3.2 kmh 29.98 in1015.2 mb 0.00 in0.0 mm 0.00 in/hr0.0 mm/hr 0.00 in0.0 mm
02:30 PM 83.6°F28.7°C 63.6°F17.6°C 51% 5.0 mph N8.0 kmh N 7.0 mph11.3 kmh 29.98 in1015.2 mb 0.00 in0.0 mm 0.00 in/hr0.0 mm/hr 0.00 in0.0 mm
02:40 PM 81.1°F27.3°C 63.9°F17.7°C 56% 6.0 mph NE9.7 kmh NE 7.0 mph11.3 kmh 29.98 in1015.2 mb 0.00 in0.0 mm 0.00 in/hr0.0 mm/hr 0.00 in0.0 mm
02:50 PM 81.9°F27.7°C 65.7°F18.7°C 58% 2.0 mph NE3.2 kmh NE 4.0 mph6.4 kmh 29.98 in1015.2 mb 0.00 in0.0 mm 0.00 in/hr0.0 mm/hr 0.00 in0.0 mm
03:00 PM 84.4°F29.1°C 64.9°F18.3°C 52% 6.0 mph NE9.7 kmh NE 7.0 mph11.3 kmh 29.98 in1015.2 mb 0.00 in0.0 mm 0.00 in/hr0.0 mm/hr 0.00 in0.0 mm
03:10 PM 81.6°F27.6°C 63.4°F17.4°C 54% 4.0 mph NE6.4 kmh NE 10.0 mph16.1 kmh 29.97 in1014.9 mb 0.00 in0.0 mm 0.00 in/hr0.0 mm/hr 0.00 in0.0 mm
03:20 PM 84.6°F29.2°C 65.1°F18.4°C 52% 5.0 mph ENE8.0 kmh ENE 13.0 mph20.9 kmh 29.97 in1014.9 mb 0.00 in0.0 mm 0.00 in/hr0.0 mm/hr 0.00 in0.0 mm
03:30 PM 84.8°F29.3°C 64.7°F18.2°C 51% Calm Calm 1.0 mph1.6 kmh 29.96 in1014.6 mb 0.00 in0.0 mm 0.00 in/hr0.0 mm/hr 0.00 in0.0 mm
03:40 PM 85.4°F29.7°C 64.1°F17.8°C 49% 6.0 mph NE9.7 kmh NE 9.0 mph14.5 kmh 29.96 in1014.6 mb 0.00 in0.0 mm 0.00 in/hr0.0 mm/hr 0.00 in0.0 mm
03:50 PM 85.9°F29.9°C 64.5°F18.1°C 49% 4.0 mph NE6.4 kmh NE 9.0 mph14.5 kmh 29.96 in1014.6 mb 0.00 in0.0 mm 0.00 in/hr0.0 mm/hr 0.00 in0.0 mm
04:00 PM 83.2°F28.4°C 63.2°F17.3°C 51% 2.0 mph NE3.2 kmh NE 7.0 mph11.3 kmh 29.96 in1014.6 mb 0.00 in0.0 mm 0.00 in/hr0.0 mm/hr 0.00 in0.0 mm
04:10 PM 81.8°F27.7°C 65.1°F18.4°C 57% 1.0 mph E1.6 kmh E 2.0 mph3.2 kmh 29.96 in1014.6 mb 0.00 in0.0 mm 0.00 in/hr0.0 mm/hr 0.00 in0.0 mm
04:20 PM 83.6°F28.7°C 63.6°F17.6°C 51% 5.0 mph NNE8.0 kmh NNE 9.0 mph14.5 kmh 29.95 in1014.2 mb 0.00 in0.0 mm 0.00 in/hr0.0 mm/hr 0.00 in0.0 mm
04:30 PM 84.9°F29.4°C 63.0°F17.2°C 48% Calm Calm 3.0 mph4.8 kmh 29.95 in1014.2 mb 0.00 in0.0 mm 0.00 in/hr0.0 mm/hr 0.00 in0.0 mm
04:40 PM 84.8°F29.3°C 64.1°F17.8°C 50% 1.0 mph NE1.6 kmh NE 10.0 mph16.1 kmh 29.94 in1013.9 mb 0.00 in0.0 mm 0.00 in/hr0.0 mm/hr 0.00 in0.0 mm
04:50 PM 85.4°F29.7°C 65.8°F18.8°C 52% Calm Calm 6.0 mph9.7 kmh 29.94 in1013.9 mb 0.00 in0.0 mm 0.00 in/hr0.0 mm/hr 0.00 in0.0 mm
05:00 PM 85.5°F29.7°C 63.6°F17.6°C 48% 2.0 mph ENE3.2 kmh ENE 6.0 mph9.7 kmh 29.94 in1013.9 mb 0.00 in0.0 mm 0.00 in/hr0.0 mm/hr 0.00 in0.0 mm
05:10 PM 84.5°F29.2°C 63.8°F17.7°C 50% 2.0 mph SE3.2 kmh SE 3.0 mph4.8 kmh 29.94 in1013.9 mb 0.00 in0.0 mm 0.00 in/hr0.0 mm/hr 0.00 in0.0 mm
05:20 PM 84.7°F29.3°C 64.0°F17.8°C 50% Calm Calm 3.0 mph4.8 kmh 29.93 in1013.5 mb 0.00 in0.0 mm 0.00 in/hr0.0 mm/hr 0.00 in0.0 mm
05:30 PM 85.0°F29.4°C 63.1°F17.3°C 48% 1.0 mph SE1.6 kmh SE 4.0 mph6.4 kmh 29.93 in1013.5 mb 0.00 in0.0 mm 0.00 in/hr0.0 mm/hr 0.00 in0.0 mm
05:40 PM 82.9°F28.3°C 62.9°F17.2°C 51% 5.0 mph NE8.0 kmh NE 5.0 mph8.0 kmh 29.93 in1013.5 mb 0.00 in0.0 mm 0.00 in/hr0.0 mm/hr 0.00 in0.0 mm
05:50 PM 80.6°F27.0°C 64.5°F18.1°C 58% Calm Calm 3.0 mph4.8 kmh 29.93 in1013.5 mb 0.00 in0.0 mm 0.00 in/hr0.0 mm/hr 0.00 in0.0 mm
06:00 PM 82.9°F28.3°C 62.9°F17.2°C 51% 1.0 mph E1.6 kmh E 3.0 mph4.8 kmh 29.93 in1013.5 mb 0.00 in0.0 mm 0.00 in/hr0.0 mm/hr 0.00 in0.0 mm
06:10 PM 84.5°F29.2°C 63.8°F17.7°C 50% Calm Calm 1.0 mph1.6 kmh 29.93 in1013.5 mb 0.00 in0.0 mm 0.00 in/hr0.0 mm/hr 0.00 in0.0 mm
06:20 PM 83.5°F28.6°C 63.5°F17.5°C 51% 2.0 mph E3.2 kmh E 5.0 mph8.0 kmh 29.92 in1013.2 mb 0.00 in0.0 mm 0.00 in/hr0.0 mm/hr 0.00 in0.0 mm
06:30 PM 83.8°F28.8°C 62.6°F17.0°C 49% 3.0 mph NE4.8 kmh NE 6.0 mph9.7 kmh 29.92 in1013.2 mb 0.00 in0.0 mm 0.00 in/hr0.0 mm/hr 0.00 in0.0 mm
06:40 PM 83.4°F28.6°C 62.8°F17.1°C 50% 2.0 mph ENE3.2 kmh ENE 5.0 mph8.0 kmh 29.92 in1013.2 mb 0.00 in0.0 mm 0.00 in/hr0.0 mm/hr 0.00 in0.0 mm
06:50 PM 82.4°F28.0°C 63.0°F17.2°C 52% Calm Calm 6.0 mph9.7 kmh 29.92 in1013.2 mb 0.00 in0.0 mm 0.00 in/hr0.0 mm/hr 0.00 in0.0 mm
07:01 PM 82.4°F28.0°C 63.6°F17.6°C 53% 1.0 mph NE1.6 kmh NE 3.0 mph4.8 kmh 29.92 in1013.2 mb 0.00 in0.0 mm 0.00 in/hr0.0 mm/hr 0.00 in0.0 mm
07:10 PM 82.1°F27.8°C 63.8°F17.7°C 54% Calm Calm 4.0 mph6.4 kmh 29.91 in1012.9 mb 0.00 in0.0 mm 0.00 in/hr0.0 mm/hr 0.00 in0.0 mm
07:20 PM 80.7°F27.1°C 63.1°F17.3°C 55% Calm Calm 2.0 mph3.2 kmh 29.91 in1012.9 mb 0.00 in0.0 mm 0.00 in/hr0.0 mm/hr 0.00 in0.0 mm
07:30 PM 79.3°F26.3°C 63.7°F17.6°C 59% Calm Calm 1.0 mph1.6 kmh 29.91 in1012.9 mb 0.00 in0.0 mm 0.00 in/hr0.0 mm/hr 0.00 in0.0 mm
07:40 PM 78.4°F25.8°C 63.4°F17.4°C 60% Calm Calm 2.0 mph3.2 kmh 29.91 in1012.9 mb 0.00 in0.0 mm 0.00 in/hr0.0 mm/hr 0.00 in0.0 mm
07:50 PM 77.7°F25.4°C 63.2°F17.3°C 61% Calm Calm 1.0 mph1.6 kmh 29.90 in1012.5 mb 0.00 in0.0 mm 0.00 in/hr0.0 mm/hr 0.00 in0.0 mm
08:00 PM 77.0°F25.0°C 63.5°F17.5°C 63% Calm Calm 1.0 mph1.6 kmh 29.91 in1012.9 mb 0.00 in0.0 mm 0.00 in/hr0.0 mm/hr 0.00 in0.0 mm
08:10 PM 75.7°F24.3°C 63.1°F17.3°C 65% Calm Calm 1.0 mph1.6 kmh 29.90 in1012.5 mb 0.00 in0.0 mm 0.00 in/hr0.0 mm/hr 0.00 in0.0 mm
08:20 PM 74.7°F23.7°C 63.0°F17.2°C 67% Calm Calm 1.0 mph1.6 kmh 29.91 in1012.9 mb 0.00 in0.0 mm 0.00 in/hr0.0 mm/hr 0.00 in0.0 mm
08:30 PM 74.0°F23.3°C 63.2°F17.3°C 69% Calm Calm 1.0 mph1.6 kmh 29.91 in1012.9 mb 0.00 in0.0 mm 0.00 in/hr0.0 mm/hr 0.00 in0.0 mm
08:40 PM 73.9°F23.3°C 63.1°F17.3°C 69% Calm Calm 1.0 mph1.6 kmh 29.92 in1013.2 mb 0.00 in0.0 mm 0.00 in/hr0.0 mm/hr 0.00 in0.0 mm
08:50 PM 73.0°F22.8°C 63.1°F17.3°C 71% Calm Calm 1.0 mph1.6 kmh 29.92 in1013.2 mb 0.00 in0.0 mm 0.00 in/hr0.0 mm/hr 0.00 in0.0 mm
09:01 PM 72.3°F22.4°C 63.2°F17.3°C 73% Calm Calm 1.0 mph1.6 kmh 29.92 in1013.2 mb 0.00 in0.0 mm 0.00 in/hr0.0 mm/hr 0.00 in0.0 mm
09:10 PM 71.8°F22.1°C 63.1°F17.3°C 74% Calm Calm 1.0 mph1.6 kmh 29.92 in1013.2 mb 0.00 in0.0 mm 0.00 in/hr0.0 mm/hr 0.00 in0.0 mm
09:20 PM 71.7°F22.1°C 63.0°F17.2°C 74% Calm Calm 1.0 mph1.6 kmh 29.93 in1013.5 mb 0.00 in0.0 mm 0.00 in/hr0.0 mm/hr 0.00 in0.0 mm
09:30 PM 71.5°F21.9°C 63.2°F17.3°C 75% Calm Calm 1.0 mph1.6 kmh 29.92 in1013.2 mb 0.00 in0.0 mm 0.00 in/hr0.0 mm/hr 0.00 in0.0 mm
09:40 PM 71.6°F22.0°C 63.3°F17.4°C 75% Calm Calm 1.0 mph1.6 kmh 29.92 in1013.2 mb 0.00 in0.0 mm 0.00 in/hr0.0 mm/hr 0.00 in0.0 mm
09:50 PM 71.6°F22.0°C 62.9°F17.2°C 74% Calm Calm 2.0 mph3.2 kmh 29.92 in1013.2 mb 0.00 in0.0 mm 0.00 in/hr0.0 mm/hr 0.00 in0.0 mm
10:00 PM 71.4°F21.9°C 62.7°F17.1°C 74% 1.0 mph ENE1.6 kmh ENE 1.0 mph1.6 kmh 29.93 in1013.5 mb 0.00 in0.0 mm 0.00 in/hr0.0 mm/hr 0.00 in0.0 mm
10:10 PM 70.9°F21.6°C 63.0°F17.2°C 76% Calm Calm 1.0 mph1.6 kmh 29.93 in1013.5 mb 0.00 in0.0 mm 0.00 in/hr0.0 mm/hr 0.00 in0.0 mm
10:20 PM 70.5°F21.4°C 62.6°F17.0°C 76% Calm Calm 4.0 mph6.4 kmh 29.93 in1013.5 mb 0.00 in0.0 mm 0.00 in/hr0.0 mm/hr 0.00 in0.0 mm
10:30 PM 70.4°F21.3°C 62.5°F16.9°C 76% Calm Calm 2.0 mph3.2 kmh 29.93 in1013.5 mb 0.00 in0.0 mm 0.00 in/hr0.0 mm/hr 0.00 in0.0 mm
10:40 PM 69.9°F21.1°C 62.4°F16.9°C 77% 1.0 mph ENE1.6 kmh ENE 1.0 mph1.6 kmh 29.93 in1013.5 mb 0.00 in0.0 mm 0.00 in/hr0.0 mm/hr 0.00 in0.0 mm
10:50 PM 69.2°F20.7°C 62.4°F16.9°C 79% Calm Calm 2.0 mph3.2 kmh 29.93 in1013.5 mb 0.00 in0.0 mm 0.00 in/hr0.0 mm/hr 0.00 in0.0 mm
11:00 PM 69.5°F20.8°C 62.4°F16.9°C 78% 1.0 mph ENE1.6 kmh ENE 1.0 mph1.6 kmh 29.93 in1013.5 mb 0.00 in0.0 mm 0.00 in/hr0.0 mm/hr 0.00 in0.0 mm
11:10 PM 69.3°F20.7°C 62.5°F16.9°C 79% Calm Calm 1.0 mph1.6 kmh 29.92 in1013.2 mb 0.00 in0.0 mm 0.00 in/hr0.0 mm/hr 0.00 in0.0 mm
11:20 PM 69.0°F20.6°C 62.6°F17.0°C 80% Calm Calm 2.0 mph3.2 kmh 29.92 in1013.2 mb 0.00 in0.0 mm 0.00 in/hr0.0 mm/hr 0.00 in0.0 mm
11:30 PM 68.7°F20.4°C 62.6°F17.0°C 81% Calm Calm 3.0 mph4.8 kmh 29.92 in1013.2 mb 0.00 in0.0 mm 0.00 in/hr0.0 mm/hr 0.00 in0.0 mm
11:40 PM 68.4°F20.2°C 62.4°F16.9°C 81% Calm Calm 4.0 mph6.4 kmh 29.92 in1013.2 mb 0.00 in0.0 mm 0.00 in/hr0.0 mm/hr 0.00 in0.0 mm
11:50 PM 68.3°F20.2°C 62.3°F16.8°C 81% Calm Calm 1.0 mph1.6 kmh 29.92 in1013.2 mb 0.00 in0.0 mm 0.00 in/hr0.0 mm/hr 0.00 in0.0 mm